Time;durP1;ratioP1;P1;durP2;ratioP2;P2;SDS_P1;SDS_P2;PMS_P1;PMS_P2;Temp;Humidity;BMP_temperature;BMP_pressure;BME280_temperature;BME280_humidity;BME280_pressure;Samples;Min_cycle;Max_cycle;Signal;HPM_P1;HPM_P2
2022/11/17 00:02:17;;;;;;;5.60;3.10;;;;;;;;;;5108029;28;20036;-88
2022/11/17 00:04:44;;;;;;;8.77;3.83;;;;;;;;;;5102209;28;20441;-88
2022/11/17 00:07:09;;;;;;;14.20;4.93;;;;;;;;;;5110046;28;20035;-88
2022/11/17 00:09:34;;;;;;;7.07;3.47;;;;;;;;;;5112950;28;20024;-89
2022/11/17 00:14:44;;;;;;;11.60;3.80;;;;;;;;;;5111469;28;20416;-88
2022/11/17 00:17:11;;;;;;;10.00;3.97;;;;;;;;;;5113851;28;20485;-89
2022/11/17 00:22:21;;;;;;;8.15;3.47;;;;;;;;;;5094785;28;20143;-88
2022/11/17 00:24:48;;;;;;;10.88;3.63;;;;;;;;;;5088948;28;20049;-88
2022/11/17 00:27:13;;;;;;;9.48;3.47;;;;;;;;;;5089542;28;20474;-87
2022/11/17 00:29:39;;;;;;;5.63;3.20;;;;;;;;;;5089785;28;20025;-88
2022/11/17 00:34:48;;;;;;;6.55;4.00;;;;;;;;;;5105588;28;20034;-88
2022/11/17 00:37:15;;;;;;;5.38;3.33;;;;;;;;;;5101563;28;20028;-89
2022/11/17 00:39:40;;;;;;;7.28;3.13;;;;;;;;;;5091918;28;20367;-88
2022/11/17 00:42:06;;;;;;;6.00;3.13;;;;;;;;;;5091282;28;20569;-89
2022/11/17 00:44:31;;;;;;;5.65;3.40;;;;;;;;;;5089657;28;20051;-88
2022/11/17 00:46:57;;;;;;;7.20;3.42;;;;;;;;;;5090318;28;20031;-89
2022/11/17 00:49:25;;;;;;;5.35;3.20;;;;;;;;;;5097649;28;20027;-89
2022/11/17 00:51:54;;;;;;;8.82;3.78;;;;;;;;;;5091352;28;20120;-88
2022/11/17 00:54:20;;;;;;;5.00;3.38;;;;;;;;;;5095905;28;20024;-89
2022/11/17 00:56:46;;;;;;;4.90;3.13;;;;;;;;;;5090392;28;20077;-88
2022/11/17 00:59:12;;;;;;;5.85;3.65;;;;;;;;;;5100963;28;20028;-89
2022/11/17 01:01:38;;;;;;;6.60;2.83;;;;;;;;;;5078515;28;20051;-88
2022/11/17 01:04:04;;;;;;;9.20;3.67;;;;;;;;;;5090491;28;20054;-88
2022/11/17 01:06:36;;;;;;;6.45;3.35;;;;;;;;;;5091817;28;20053;-89
2022/11/17 01:09:05;;;;;;;6.78;3.20;;;;;;;;;;5089120;28;20489;-88
2022/11/17 01:11:30;;;;;;;5.35;2.72;;;;;;;;;;5087032;28;20043;-88
2022/11/17 01:13:58;;;;;;;5.20;3.03;;;;;;;;;;5091229;28;20540;-89
2022/11/17 01:16:24;;;;;;;8.18;2.75;;;;;;;;;;5095228;28;20831;-88
2022/11/17 01:18:51;;;;;;;8.77;3.25;;;;;;;;;;5097130;28;20024;-88
2022/11/17 01:21:22;;;;;;;8.02;2.95;;;;;;;;;;5096023;28;20023;-88
2022/11/17 01:23:51;;;;;;;7.60;2.90;;;;;;;;;;5098931;28;20035;-88
2022/11/17 01:26:22;;;;;;;6.40;2.78;;;;;;;;;;5081868;28;20030;-88
2022/11/17 01:28:48;;;;;;;4.55;2.38;;;;;;;;;;5092809;28;20036;-88
2022/11/17 01:31:16;;;;;;;4.30;2.50;;;;;;;;;;5086973;28;20039;-88
2022/11/17 01:33:42;;;;;;;4.25;2.13;;;;;;;;;;5128041;27;20035;-88
2022/11/17 01:36:15;;;;;;;5.88;2.55;;;;;;;;;;5100286;28;20031;-88
2022/11/17 01:38:42;;;;;;;7.25;2.38;;;;;;;;;;5122620;27;20020;-89
2022/11/17 01:41:14;;;;;;;4.57;1.85;;;;;;;;;;5088474;28;20032;-89
2022/11/17 01:43:41;;;;;;;;;;;;;;;;;;5086166;28;20031;-88
2022/11/17 01:46:28;;;;;;;4.20;2.15;;;;;;;;;;5107386;28;19912;-89
2022/11/17 01:49:17;;;;;;;5.68;2.05;;;;;;;;;;5091688;28;20047;-88
2022/11/17 01:51:51;;;;;;;4.00;2.58;;;;;;;;;;5084976;28;20494;-89
2022/11/17 01:54:20;;;;;;;3.80;2.08;;;;;;;;;;5084634;28;20386;-89
2022/11/17 01:56:49;;;;;;;2.47;2.28;;;;;;;;;;5101394;28;20031;-88
2022/11/17 01:59:32;;;;;;;2.50;2.08;;;;;;;;;;5091813;28;20008;-88
2022/11/17 02:01:58;;;;;;;2.95;2.05;;;;;;;;;;5116711;28;20023;-87
2022/11/17 02:04:33;;;;;;;3.72;2.13;;;;;;;;;;5128618;28;20027;-88
2022/11/17 02:07:06;;;;;;;3.80;2.35;;;;;;;;;;5098162;28;20024;-88
2022/11/17 02:09:36;;;;;;;2.78;2.13;;;;;;;;;;5110479;28;20028;-87
2022/11/17 02:12:03;;;;;;;3.38;2.38;;;;;;;;;;5106007;28;20031;-88
2022/11/17 02:14:28;;;;;;;3.53;1.90;;;;;;;;;;5096412;28;20042;-88
2022/11/17 02:16:54;;;;;;;3.75;2.58;;;;;;;;;;5087033;28;20433;-89
2022/11/17 02:19:22;;;;;;;4.43;2.53;;;;;;;;;;5092369;28;20147;-89
2022/11/17 02:21:57;;;;;;;7.20;2.67;;;;;;;;;;5092594;28;20058;-88
2022/11/17 02:24:52;;;;;;;5.30;2.45;;;;;;;;;;5098928;28;20470;-87
2022/11/17 02:27:43;;;;;;;4.35;2.17;;;;;;;;;;5093766;28;20035;-89
2022/11/17 02:30:15;;;;;;;4.13;2.35;;;;;;;;;;5110803;28;20031;-87
2022/11/17 02:32:52;;;;;;;;;;;;;;;;;;5089715;28;20021;-88
2022/11/17 02:35:44;;;;;;;3.38;2.20;;;;;;;;;;5096313;28;19947;-89
2022/11/17 02:38:31;;;;;;;7.00;2.47;;;;;;;;;;5087772;28;20068;-87
2022/11/17 02:41:08;;;;;;;8.18;2.65;;;;;;;;;;5104084;28;20035;-88
2022/11/17 02:46:29;;;;;;;4.75;2.38;;;;;;;;;;5092987;28;20088;-88
2022/11/17 02:49:01;;;;;;;4.47;2.47;;;;;;;;;;5071794;28;20043;-89
2022/11/17 02:51:26;;;;;;;6.40;2.80;;;;;;;;;;5082929;28;20036;-89
2022/11/17 02:53:55;;;;;;;6.63;3.05;;;;;;;;;;5092783;28;20040;-89
2022/11/17 02:56:20;;;;;;;7.30;2.53;;;;;;;;;;5092718;28;20024;-87
2022/11/17 02:58:50;;;;;;;4.32;2.78;;;;;;;;;;5080459;28;20039;-89
2022/11/17 03:01:47;;;;;;;3.60;2.53;;;;;;;;;;5090607;28;20540;-88
2022/11/17 03:04:18;;;;;;;4.32;2.65;;;;;;;;;;5095846;28;20020;-88
2022/11/17 03:06:55;;;;;;;4.80;2.83;;;;;;;;;;5101055;28;20814;-88
2022/11/17 03:09:40;;;;;;;2.97;2.22;;;;;;;;;;5112219;28;20303;-89
2022/11/17 03:12:20;;;;;;;3.53;2.58;;;;;;;;;;5072079;28;20028;-89
2022/11/17 03:14:54;;;;;;;4.15;2.30;;;;;;;;;;5081475;28;20518;-89
2022/11/17 03:17:31;;;;;;;8.10;2.42;;;;;;;;;;5111740;28;20034;-88
2022/11/17 03:20:11;;;;;;;6.00;2.30;;;;;;;;;;5110583;28;20511;-90
2022/11/17 03:22:49;;;;;;;5.03;2.97;;;;;;;;;;5099853;28;20028;-88
2022/11/17 03:25:18;;;;;;;5.60;2.60;;;;;;;;;;5097710;28;20405;-88
2022/11/17 03:27:53;;;;;;;4.43;2.53;;;;;;;;;;5088106;28;20020;-91
2022/11/17 03:30:21;;;;;;;3.20;2.30;;;;;;;;;;5095090;28;20016;-88
2022/11/17 03:32:51;;;;;;;4.43;2.08;;;;;;;;;;5100850;28;20032;-89
2022/11/17 03:35:20;;;;;;;4.13;2.45;;;;;;;;;;5105028;28;20055;-89
2022/11/17 03:37:50;;;;;;;5.75;2.78;;;;;;;;;;5086556;28;20054;-89
2022/11/17 03:40:23;;;;;;;4.93;2.70;;;;;;;;;;5090198;28;20052;-87
2022/11/17 03:42:56;;;;;;;7.03;3.90;;;;;;;;;;5090763;28;20051;-89
2022/11/17 03:45:27;;;;;;;4.80;3.20;;;;;;;;;;5111159;28;20030;-90
2022/11/17 03:48:11;;;;;;;5.05;2.90;;;;;;;;;;5093034;28;20382;-89
2022/11/17 03:50:42;;;;;;;3.00;2.03;;;;;;;;;;5086584;28;20059;-89
2022/11/17 03:53:08;;;;;;;2.90;2.08;;;;;;;;;;5091623;28;20054;-90
2022/11/17 03:55:46;;;;;;;2.55;1.85;;;;;;;;;;5100598;28;20731;-89
2022/11/17 03:58:16;;;;;;;5.95;1.98;;;;;;;;;;5094036;28;20382;-90
2022/11/17 04:00:42;;;;;;;2.05;1.45;;;;;;;;;;5099412;28;20016;-88
2022/11/17 04:03:07;;;;;;;3.83;1.98;;;;;;;;;;5100268;28;20024;-88
2022/11/17 04:05:33;;;;;;;3.10;2.25;;;;;;;;;;5087467;28;20486;-88
2022/11/17 04:07:58;;;;;;;3.45;1.75;;;;;;;;;;5095228;28;20030;-88
2022/11/17 04:10:25;;;;;;;2.13;1.77;;;;;;;;;;5095327;28;20028;-88
2022/11/17 04:15:55;;;;;;;3.78;1.80;;;;;;;;;;5070749;28;20040;-88
2022/11/17 04:18:22;;;;;;;2.97;2.05;;;;;;;;;;5092992;28;20027;-88
2022/11/17 04:20:55;;;;;;;2.00;1.45;;;;;;;;;;5107334;28;20020;-90
2022/11/17 04:23:22;;;;;;;2.10;1.63;;;;;;;;;;5096860;28;20028;-88
2022/11/17 04:28:37;;;;;;;1.92;1.60;;;;;;;;;;5103934;28;20035;-88
2022/11/17 04:31:19;;;;;;;4.95;1.98;;;;;;;;;;5097189;28;20024;-87
2022/11/17 04:33:52;;;;;;;4.70;2.05;;;;;;;;;;5091299;28;20032;-89
2022/11/17 04:36:20;;;;;;;2.35;1.92;;;;;;;;;;5101510;28;20028;-88
2022/11/17 04:38:48;;;;;;;3.08;1.65;;;;;;;;;;5103172;28;20313;-88
2022/11/17 04:44:00;;;;;;;3.58;1.60;;;;;;;;;;5097748;28;20057;-88
2022/11/17 04:46:28;;;;;;;1.70;1.52;;;;;;;;;;5099582;28;20405;-89
2022/11/17 04:48:54;;;;;;;2.30;2.13;;;;;;;;;;5093851;28;20027;-89
2022/11/17 04:51:21;;;;;;;3.00;1.70;;;;;;;;;;5099224;28;20016;-88
2022/11/17 04:53:46;;;;;;;4.13;1.77;;;;;;;;;;5112387;28;20027;-90
2022/11/17 04:56:12;;;;;;;2.20;1.88;;;;;;;;;;5110712;28;20388;-88
2022/11/17 04:58:38;;;;;;;5.22;2.13;;;;;;;;;;5092594;28;20020;-91
2022/11/17 05:01:12;;;;;;;2.20;1.92;;;;;;;;;;5117555;27;20019;-89
2022/11/17 05:03:45;;;;;;;2.70;1.90;;;;;;;;;;5114457;28;20047;-89
2022/11/17 05:06:23;;;;;;;2.10;1.77;;;;;;;;;;5102151;28;20050;-90
2022/11/17 05:08:49;;;;;;;1.95;1.75;;;;;;;;;;5113004;28;20023;-89
2022/11/17 05:14:00;;;;;;;3.30;2.00;;;;;;;;;;5114979;28;20097;-90
2022/11/17 05:19:17;;;;;;;6.95;1.83;;;;;;;;;;5098650;28;20083;-89
2022/11/17 05:21:42;;;;;;;3.70;2.30;;;;;;;;;;5084520;28;20557;-91
2022/11/17 05:24:08;;;;;;;2.20;2.00;;;;;;;;;;5106007;28;20077;-89
2022/11/17 05:26:35;;;;;;;3.92;1.73;;;;;;;;;;5115276;28;20490;-88
2022/11/17 05:29:03;;;;;;;6.25;2.20;;;;;;;;;;5079074;28;20059;-89
2022/11/17 05:31:29;;;;;;;5.82;1.98;;;;;;;;;;5085058;28;20119;-88
2022/11/17 05:33:55;;;;;;;2.92;2.13;;;;;;;;;;5109182;28;20015;-88
2022/11/17 05:36:22;;;;;;;4.57;2.13;;;;;;;;;;5100383;28;20028;-88
2022/11/17 05:38:48;;;;;;;3.70;1.95;;;;;;;;;;5090572;28;20119;-89
2022/11/17 05:41:14;;;;;;;3.08;2.25;;;;;;;;;;5129336;27;20048;-88
2022/11/17 05:43:39;;;;;;;2.75;2.20;;;;;;;;;;5086949;28;20047;-89
2022/11/17 05:46:05;;;;;;;2.22;1.90;;;;;;;;;;5113694;28;20009;-88
2022/11/17 05:48:32;;;;;;;5.25;2.28;;;;;;;;;;5079374;28;20031;-89
2022/11/17 05:50:58;;;;;;;7.10;2.20;;;;;;;;;;5092247;28;20494;-89
2022/11/17 05:53:24;;;;;;;3.35;2.15;;;;;;;;;;5088570;28;20035;-89
2022/11/17 05:55:49;;;;;;;3.72;2.15;;;;;;;;;;5101966;28;20032;-89
2022/11/17 05:58:20;;;;;;;2.65;1.80;;;;;;;;;;5130555;27;20026;-90
2022/11/17 06:00:46;;;;;;;1.85;1.75;;;;;;;;;;5105643;28;20016;-89
2022/11/17 06:03:16;;;;;;;2.63;2.22;;;;;;;;;;5095771;28;20030;-89
2022/11/17 06:05:42;;;;;;;4.47;2.13;;;;;;;;;;5096056;27;20468;-88
2022/11/17 06:08:08;;;;;;;2.72;2.08;;;;;;;;;;5091769;28;20473;-89
2022/11/17 06:10:34;;;;;;;2.20;2.00;;;;;;;;;;5106146;28;20038;-89
2022/11/17 06:12:59;;;;;;;4.03;1.92;;;;;;;;;;5097541;28;20062;-90
2022/11/17 06:15:25;;;;;;;3.40;2.13;;;;;;;;;;5103380;28;20031;-89
2022/11/17 06:17:55;;;;;;;8.63;2.38;;;;;;;;;;5089029;28;20473;-88
2022/11/17 06:20:25;;;;;;;1.83;1.58;;;;;;;;;;5099490;28;20051;-89
2022/11/17 06:22:51;;;;;;;3.22;1.98;;;;;;;;;;5107064;28;20024;-88
2022/11/17 06:25:18;;;;;;;4.15;2.22;;;;;;;;;;5092240;28;20080;-86
2022/11/17 06:27:45;;;;;;;3.65;2.05;;;;;;;;;;5099270;28;20028;-89
2022/11/17 06:30:11;;;;;;;2.50;1.63;;;;;;;;;;5090930;28;20023;-88
2022/11/17 06:32:48;;;;;;;2.83;1.83;;;;;;;;;;5103640;28;20155;-89
2022/11/17 06:35:15;;;;;;;4.32;1.60;;;;;;;;;;5085226;28;20034;-90
2022/11/17 06:37:41;;;;;;;2.05;1.80;;;;;;;;;;5093628;28;20024;-89
2022/11/17 06:40:07;;;;;;;2.08;1.63;;;;;;;;;;5093171;28;20306;-89
2022/11/17 06:45:17;;;;;;;3.03;1.27;;;;;;;;;;5091380;28;20034;-88
2022/11/17 06:47:42;;;;;;;2.53;1.80;;;;;;;;;;5089384;28;20107;-89
2022/11/17 06:50:08;;;;;;;1.70;1.60;;;;;;;;;;5089974;28;20058;-88
2022/11/17 06:52:33;;;;;;;3.40;1.85;;;;;;;;;;5087605;28;20056;-89
2022/11/17 06:54:58;;;;;;;2.67;1.55;;;;;;;;;;5091278;28;20498;-87
2022/11/17 06:57:24;;;;;;;1.73;1.58;;;;;;;;;;5093652;28;20048;-87
2022/11/17 06:59:51;;;;;;;3.50;1.58;;;;;;;;;;5092749;28;20046;-89
2022/11/17 07:02:16;;;;;;;5.13;1.98;;;;;;;;;;5106215;28;20091;-88
2022/11/17 07:04:42;;;;;;;3.30;1.83;;;;;;;;;;5106638;28;20076;-88
2022/11/17 07:07:07;;;;;;;6.47;1.70;;;;;;;;;;5091541;28;20016;-88
2022/11/17 07:09:32;;;;;;;3.78;2.08;;;;;;;;;;5092982;28;20024;-87
2022/11/17 07:11:58;;;;;;;9.20;1.83;;;;;;;;;;5103217;28;20034;-87
2022/11/17 07:14:23;;;;;;;3.22;2.00;;;;;;;;;;5102770;28;20115;-86
2022/11/17 07:16:48;;;;;;;3.22;2.00;;;;;;;;;;5089281;28;20020;-89
2022/11/17 07:19:14;;;;;;;3.65;1.63;;;;;;;;;;5111591;28;20031;-88
2022/11/17 07:21:39;;;;;;;1.30;1.20;;;;;;;;;;5091566;28;20042;-86
2022/11/17 07:24:05;;;;;;;3.05;1.50;;;;;;;;;;5098044;28;20039;-87
2022/11/17 07:26:30;;;;;;;2.47;1.35;;;;;;;;;;5091322;28;20031;-86
2022/11/17 07:28:55;;;;;;;2.42;1.65;;;;;;;;;;5091374;28;20596;-88
2022/11/17 07:31:21;;;;;;;1.60;1.50;;;;;;;;;;5100629;28;20103;-86
2022/11/17 07:33:46;;;;;;;2.50;1.38;;;;;;;;;;5110696;28;21087;-84
2022/11/17 07:36:16;;;;;;;2.38;1.35;;;;;;;;;;5110337;28;20023;-83
2022/11/17 07:38:41;;;;;;;3.03;1.70;;;;;;;;;;5115704;28;20032;-85
2022/11/17 07:41:09;;;;;;;2.90;1.30;;;;;;;;;;5106142;28;20016;-86
2022/11/17 07:43:35;;;;;;;2.22;1.38;;;;;;;;;;5116424;28;20008;-86
2022/11/17 07:46:11;;;;;;;1.75;1.50;;;;;;;;;;5112591;28;20009;-85
2022/11/17 07:48:37;;;;;;;1.77;1.27;;;;;;;;;;5125016;28;20016;-88
2022/11/17 07:51:03;;;;;;;4.88;1.50;;;;;;;;;;5101048;28;20043;-87
2022/11/17 07:53:30;;;;;;;1.23;1.08;;;;;;;;;;5102400;28;20066;-88
2022/11/17 07:55:55;;;;;;;3.63;1.40;;;;;;;;;;5105035;28;20024;-87
2022/11/17 07:58:21;;;;;;;1.30;1.20;;;;;;;;;;5100570;28;20039;-89
2022/11/17 08:00:46;;;;;;;2.20;1.35;;;;;;;;;;5097070;28;20032;-87
2022/11/17 08:03:11;;;;;;;2.17;1.27;;;;;;;;;;5111431;27;20055;-87
2022/11/17 08:05:38;;;;;;;1.75;1.10;;;;;;;;;;5115460;28;20443;-87
2022/11/17 08:08:06;;;;;;;3.83;1.30;;;;;;;;;;5090763;28;20026;-87
2022/11/17 08:10:33;;;;;;;1.40;0.90;;;;;;;;;;5103619;28;20541;-88
2022/11/17 08:12:59;;;;;;;3.35;1.10;;;;;;;;;;5106601;28;20453;-86
2022/11/17 08:15:26;;;;;;;1.33;0.82;;;;;;;;;;5107385;28;20028;-85
2022/11/17 08:17:54;;;;;;;2.58;0.70;;;;;;;;;;5106994;28;20019;-84
2022/11/17 08:20:21;;;;;;;1.08;0.63;;;;;;;;;;5134742;28;20012;-84
2022/11/17 08:22:48;;;;;;;1.27;0.70;;;;;;;;;;5110867;28;20032;-84
2022/11/17 08:25:14;;;;;;;4.05;0.95;;;;;;;;;;5097009;28;21033;-88
2022/11/17 08:27:40;;;;;;;6.32;0.98;;;;;;;;;;5106404;28;20694;-85
2022/11/17 08:30:08;;;;;;;1.90;0.70;;;;;;;;;;5100313;28;20053;-87
2022/11/17 08:32:34;;;;;;;2.35;0.70;;;;;;;;;;5091953;28;20031;-86
2022/11/17 08:35:00;;;;;;;2.70;0.88;;;;;;;;;;5105250;28;20023;-87
2022/11/17 08:37:25;;;;;;;0.90;0.47;;;;;;;;;;5099230;28;20111;-85
2022/11/17 08:39:50;;;;;;;2.33;0.90;;;;;;;;;;5128679;27;20036;-87
2022/11/17 08:42:16;;;;;;;1.65;0.47;;;;;;;;;;5105577;28;20473;-87
2022/11/17 08:44:41;;;;;;;1.38;0.80;;;;;;;;;;5093260;28;20038;-87
2022/11/17 08:47:07;;;;;;;0.40;0.40;;;;;;;;;;5084552;28;20082;-88
2022/11/17 08:49:32;;;;;;;2.33;1.00;;;;;;;;;;5091949;28;20020;-87
2022/11/17 08:51:57;;;;;;;5.53;1.13;;;;;;;;;;5106838;28;20527;-88
2022/11/17 08:54:23;;;;;;;4.28;0.93;;;;;;;;;;5101679;28;20673;-86
2022/11/17 08:56:48;;;;;;;3.50;0.65;;;;;;;;;;5093771;28;20035;-88
2022/11/17 08:59:13;;;;;;;1.95;0.85;;;;;;;;;;5094095;28;20084;-86
2022/11/17 09:01:39;;;;;;;3.40;0.95;;;;;;;;;;5103051;28;20058;-85
2022/11/17 09:04:05;;;;;;;0.45;0.32;;;;;;;;;;5108665;28;20088;-88
2022/11/17 09:06:30;;;;;;;3.45;0.73;;;;;;;;;;5093249;28;20053;-86
2022/11/17 09:08:56;;;;;;;2.60;0.65;;;;;;;;;;5092918;28;20103;-87
2022/11/17 09:11:22;;;;;;;0.82;0.30;;;;;;;;;;5095728;28;20016;-85
2022/11/17 09:13:47;;;;;;;4.85;0.80;;;;;;;;;;5096306;28;20115;-88
2022/11/17 09:16:13;;;;;;;0.65;0.45;;;;;;;;;;5097879;28;20023;-87
2022/11/17 09:18:39;;;;;;;1.02;0.60;;;;;;;;;;5097697;28;20024;-85
2022/11/17 09:21:10;;;;;;;6.05;0.63;;;;;;;;;;5089258;28;20404;-87
2022/11/17 09:23:35;;;;;;;2.40;0.60;;;;;;;;;;5096174;28;20093;-87
2022/11/17 09:26:09;;;;;;;1.10;0.88;;;;;;;;;;5100427;28;20032;-86
2022/11/17 09:28:34;;;;;;;0.73;0.63;;;;;;;;;;5108098;28;20389;-85
2022/11/17 09:31:15;;;;;;;1.48;0.57;;;;;;;;;;5097252;28;20024;-87
2022/11/17 09:33:41;;;;;;;1.45;0.55;;;;;;;;;;5095209;28;20081;-86
2022/11/17 09:36:07;;;;;;;1.80;0.60;;;;;;;;;;5107625;28;20024;-85
2022/11/17 09:38:33;;;;;;;0.82;0.73;;;;;;;;;;5110047;28;20032;-85
2022/11/17 09:41:00;;;;;;;0.57;0.50;;;;;;;;;;5114548;28;20016;-88
2022/11/17 09:43:32;;;;;;;0.43;0.40;;;;;;;;;;5099270;27;20050;-87
2022/11/17 09:46:12;;;;;;;1.00;0.40;;;;;;;;;;5084917;28;20039;-88
2022/11/17 09:48:46;;;;;;;0.90;0.60;;;;;;;;;;5102719;28;20663;-87
2022/11/17 09:51:15;;;;;;;2.70;0.52;;;;;;;;;;5090258;28;20524;-86
2022/11/17 09:53:58;;;;;;;2.53;0.52;;;;;;;;;;5093541;28;20056;-87
2022/11/17 09:56:25;;;;;;;0.77;0.57;;;;;;;;;;5094381;28;20114;-88
2022/11/17 09:58:58;;;;;;;3.60;0.90;;;;;;;;;;5097163;28;20428;-85
2022/11/17 10:01:27;;;;;;;1.38;0.60;;;;;;;;;;5092372;28;20619;-87
2022/11/17 10:03:54;;;;;;;1.02;0.80;;;;;;;;;;5095929;28;20050;-85
2022/11/17 10:06:23;;;;;;;1.02;0.60;;;;;;;;;;5083747;28;20043;-85
2022/11/17 10:09:01;;;;;;;0.73;0.50;;;;;;;;;;5080004;28;20076;-87
2022/11/17 10:11:30;;;;;;;1.75;0.75;;;;;;;;;;5115698;28;20023;-87
2022/11/17 10:14:18;;;;;;;3.15;0.90;;;;;;;;;;5100580;28;20028;-87
2022/11/17 10:16:57;;;;;;;2.08;0.70;;;;;;;;;;5096090;28;20026;-87
2022/11/17 10:19:31;;;;;;;1.85;0.60;;;;;;;;;;5093687;28;20088;-86
2022/11/17 10:22:02;;;;;;;1.45;0.80;;;;;;;;;;5093416;28;20032;-86
2022/11/17 10:24:46;;;;;;;2.83;0.77;;;;;;;;;;5094425;28;20054;-87
2022/11/17 10:27:27;;;;;;;2.38;0.60;;;;;;;;;;5088000;28;20031;-87
2022/11/17 10:30:04;;;;;;;3.22;1.20;;;;;;;;;;5089877;28;20043;-86
2022/11/17 10:32:33;;;;;;;1.75;0.80;;;;;;;;;;5085732;28;20497;-86
2022/11/17 10:35:16;;;;;;;5.45;0.90;;;;;;;;;;5093603;28;20049;-88
2022/11/17 10:38:03;;;;;;;3.65;0.88;;;;;;;;;;5104703;28;20118;-84
2022/11/17 10:40:32;;;;;;;4.80;0.68;;;;;;;;;;5090177;28;20038;-87
2022/11/17 10:43:13;;;;;;;2.10;0.50;;;;;;;;;;5102179;28;20027;-86
2022/11/17 10:45:49;;;;;;;1.52;0.55;;;;;;;;;;5124464;27;20403;-85
2022/11/17 10:48:20;;;;;;;6.55;1.50;;;;;;;;;;5096553;28;20026;-87
2022/11/17 10:50:58;;;;;;;7.10;2.20;;;;;;;;;;5093451;28;20077;-87
2022/11/17 10:53:35;;;;;;;2.80;0.75;;;;;;;;;;5091583;28;20485;-87
2022/11/17 10:56:14;;;;;;;1.67;0.82;;;;;;;;;;5092692;28;20019;-85
2022/11/17 10:59:19;;;;;;;4.88;1.00;;;;;;;;;;5074837;28;20081;-87
2022/11/17 11:01:50;;;;;;;11.55;0.90;;;;;;;;;;5096154;28;20016;-88
2022/11/17 11:04:34;;;;;;;1.20;0.68;;;;;;;;;;5091442;28;20024;-87
2022/11/17 11:07:20;;;;;;;3.72;1.02;;;;;;;;;;5092104;28;20034;-86
2022/11/17 11:09:57;;;;;;;3.92;1.00;;;;;;;;;;5107277;28;20054;-86
2022/11/17 11:12:47;;;;;;;1.02;0.70;;;;;;;;;;5087690;28;20116;-87
2022/11/17 11:15:19;;;;;;;0.95;0.60;;;;;;;;;;5074599;28;20423;-86
2022/11/17 11:17:44;;;;;;;2.63;0.73;;;;;;;;;;5080790;28;20032;-84
2022/11/17 11:20:15;;;;;;;2.60;0.80;;;;;;;;;;5104559;28;20054;-85
2022/11/17 11:22:58;;;;;;;0.90;0.35;;;;;;;;;;5092321;28;20027;-87
2022/11/17 11:25:32;;;;;;;2.30;0.85;;;;;;;;;;5084610;28;20048;-87
2022/11/17 11:28:23;;;;;;;2.50;0.70;;;;;;;;;;5085778;28;20060;-87
2022/11/17 11:31:15;;;;;;;2.13;0.57;;;;;;;;;;5086079;28;20016;-87
2022/11/17 11:33:46;;;;;;;4.45;0.80;;;;;;;;;;5101440;28;20099;-86
2022/11/17 11:36:20;;;;;;;1.73;0.55;;;;;;;;;;5104364;28;20041;-87
2022/11/17 11:38:49;;;;;;;2.95;1.38;;;;;;;;;;5090930;28;20077;-87
2022/11/17 11:41:18;;;;;;;1.88;0.70;;;;;;;;;;5093692;28;20075;-88
2022/11/17 11:43:51;;;;;;;2.50;0.80;;;;;;;;;;5092227;28;20092;-86
2022/11/17 11:46:40;;;;;;;1.95;1.00;;;;;;;;;;5091086;28;20028;-89
2022/11/17 11:49:20;;;;;;;1.38;0.80;;;;;;;;;;5054736;28;20036;-87
2022/11/17 11:51:48;;;;;;;3.35;1.00;;;;;;;;;;5090456;28;20032;-86
2022/11/17 11:54:26;;;;;;;3.33;0.60;;;;;;;;;;5099649;28;20058;-89
2022/11/17 11:56:52;;;;;;;2.53;0.68;;;;;;;;;;5085360;28;21097;-87
2022/11/17 11:59:20;;;;;;;1.88;0.80;;;;;;;;;;5082768;28;20093;-86
2022/11/17 12:02:10;;;;;;;1.58;0.38;;;;;;;;;;5080104;28;20024;-88
2022/11/17 12:04:53;;;;;;;3.63;0.95;;;;;;;;;;5089026;28;20058;-87
2022/11/17 12:07:24;;;;;;;2.25;0.88;;;;;;;;;;5089269;28;20036;-87
2022/11/17 12:10:05;;;;;;;3.80;0.70;;;;;;;;;;5106482;28;20096;-87
2022/11/17 12:12:35;;;;;;;3.67;0.90;;;;;;;;;;5092666;28;20028;-86
2022/11/17 12:15:17;;;;;;;4.32;0.85;;;;;;;;;;5104216;28;20079;-88
2022/11/17 12:17:51;;;;;;;1.48;0.68;;;;;;;;;;5097129;28;20028;-88
2022/11/17 12:20:35;;;;;;;2.97;1.00;;;;;;;;;;5097182;28;20028;-89
2022/11/17 12:23:15;;;;;;;1.00;0.65;;;;;;;;;;5096672;28;20032;-88
2022/11/17 12:25:45;;;;;;;3.92;1.00;;;;;;;;;;5107937;28;20446;-88
2022/11/17 12:28:30;;;;;;;4.70;0.88;;;;;;;;;;5104708;28;20059;-90
2022/11/17 12:30:59;;;;;;;1.02;0.50;;;;;;;;;;5090281;28;20520;-89
2022/11/17 12:33:52;;;;;;;6.68;0.88;;;;;;;;;;5081977;28;20040;-88
2022/11/17 12:36:25;;;;;;;5.03;0.98;;;;;;;;;;5077905;28;20021;-87
2022/11/17 12:38:51;;;;;;;6.20;0.80;;;;;;;;;;5078939;28;20052;-87
2022/11/17 12:41:48;;;;;;;5.15;1.00;;;;;;;;;;5084356;28;20044;-84
2022/11/17 12:44:35;;;;;;;1.75;0.60;;;;;;;;;;5092984;28;20028;-87
2022/11/17 12:47:21;;;;;;;2.58;0.82;;;;;;;;;;5075904;28;20020;-88
2022/11/17 12:50:07;;;;;;;2.08;0.77;;;;;;;;;;5076793;28;20078;-86
2022/11/17 12:52:42;;;;;;;1.80;0.63;;;;;;;;;;5076331;28;20025;-86
2022/11/17 12:55:40;;;;;;;4.38;1.02;;;;;;;;;;5077973;28;20119;-85
2022/11/17 12:58:16;;;;;;;2.88;0.90;;;;;;;;;;5077040;28;20056;-87
2022/11/17 13:01:16;;;;;;;4.85;1.17;;;;;;;;;;5093016;28;20390;-88
2022/11/17 13:03:59;;;;;;;4.00;0.85;;;;;;;;;;5066460;28;20037;-87
2022/11/17 13:06:25;;;;;;;3.85;1.00;;;;;;;;;;5074722;28;20027;-87
2022/11/17 13:08:57;;;;;;;5.18;1.02;;;;;;;;;;5077871;28;20032;-86
2022/11/17 13:11:23;;;;;;;1.95;0.73;;;;;;;;;;5072850;28;20021;-87
2022/11/17 13:13:48;;;;;;;6.93;1.00;;;;;;;;;;5084488;28;20032;-86
2022/11/17 13:16:19;;;;;;;3.45;0.93;;;;;;;;;;5083926;28;20056;-88
2022/11/17 13:18:45;;;;;;;6.63;1.40;;;;;;;;;;5074768;28;20043;-89
2022/11/17 13:21:28;;;;;;;2.75;1.13;;;;;;;;;;5075881;28;20032;-88
2022/11/17 13:23:54;;;;;;;2.88;0.93;;;;;;;;;;5075211;28;20672;-88
2022/11/17 13:26:34;;;;;;;5.07;1.20;;;;;;;;;;5078265;28;20880;-85
2022/11/17 13:29:05;;;;;;;2.47;0.95;;;;;;;;;;5077383;28;20118;-84
2022/11/17 13:31:34;;;;;;;3.45;0.98;;;;;;;;;;5085532;28;20051;-86
2022/11/17 13:34:02;;;;;;;2.95;0.88;;;;;;;;;;5079894;28;20070;-86
2022/11/17 13:36:27;;;;;;;4.22;1.25;;;;;;;;;;5073167;28;20064;-86
2022/11/17 13:38:56;;;;;;;9.55;1.33;;;;;;;;;;5078136;28;20056;-88
2022/11/17 13:41:23;;;;;;;2.40;0.98;;;;;;;;;;5078749;28;20028;-86
2022/11/17 13:43:50;;;;;;;2.97;1.20;;;;;;;;;;5113151;27;20035;-86
2022/11/17 13:46:17;;;;;;;4.97;0.98;;;;;;;;;;5080331;28;20052;-86
2022/11/17 13:48:44;;;;;;;6.90;1.52;;;;;;;;;;5094363;28;20031;-87
2022/11/17 13:51:16;;;;;;;3.63;1.25;;;;;;;;;;5094190;28;20020;-88
2022/11/17 13:53:44;;;;;;;7.22;1.45;;;;;;;;;;5094738;28;20032;-84
2022/11/17 13:56:29;;;;;;;2.35;0.88;;;;;;;;;;5079124;28;20036;-88
2022/11/17 13:58:55;;;;;;;3.67;1.13;;;;;;;;;;5082486;28;20052;-87
2022/11/17 14:01:31;;;;;;;7.97;1.20;;;;;;;;;;5077659;28;20028;-85
2022/11/17 14:07:30;;;;;;;5.72;1.30;;;;;;;;;;5082158;28;20122;-87
2022/11/17 14:10:26;;;;;;;7.38;1.15;;;;;;;;;;5083233;28;20587;-87
2022/11/17 14:13:24;;;;;;;7.70;1.20;;;;;;;;;;5082137;28;20416;-85
2022/11/17 14:15:54;;;;;;;2.08;0.90;;;;;;;;;;5103052;28;20032;-87
2022/11/17 14:18:27;;;;;;;2.40;1.30;;;;;;;;;;5095420;28;20017;-86
2022/11/17 14:21:19;;;;;;;4.63;1.25;;;;;;;;;;5123915;28;20023;-87
2022/11/17 14:23:47;;;;;;;4.90;1.27;;;;;;;;;;5096174;28;20158;-87
2022/11/17 14:26:18;;;;;;;2.45;1.00;;;;;;;;;;5094949;28;20047;-88
2022/11/17 14:28:46;;;;;;;6.20;1.60;;;;;;;;;;5088414;28;20024;-86
2022/11/17 14:31:14;;;;;;;9.30;1.50;;;;;;;;;;5102852;28;20774;-87
2022/11/17 14:33:40;;;;;;;6.35;1.38;;;;;;;;;;5099284;28;20039;-88
2022/11/17 14:36:16;;;;;;;2.97;0.93;;;;;;;;;;5092786;28;20028;-85
2022/11/17 14:39:34;;;;;;;6.18;1.60;;;;;;;;;;5100879;28;20020;-86
2022/11/17 14:42:15;;;;;;;4.68;1.23;;;;;;;;;;5093731;28;20081;-87
2022/11/17 14:44:40;;;;;;;7.13;1.63;;;;;;;;;;5094435;28;20028;-86
2022/11/17 14:47:05;;;;;;;4.88;1.42;;;;;;;;;;5110843;28;20114;-88
2022/11/17 14:49:34;;;;;;;8.43;1.70;;;;;;;;;;5114071;28;20051;-86
2022/11/17 14:51:59;;;;;;;5.25;1.45;;;;;;;;;;5097258;28;20024;-87
2022/11/17 14:54:25;;;;;;;8.23;1.58;;;;;;;;;;5076451;28;20020;-87
2022/11/17 14:56:50;;;;;;;9.90;2.05;;;;;;;;;;5074837;28;20424;-87
2022/11/17 14:59:18;;;;;;;6.65;1.60;;;;;;;;;;5072982;28;20035;-88
2022/11/17 15:01:43;;;;;;;3.40;1.35;;;;;;;;;;5069943;28;20052;-87
2022/11/17 15:04:14;;;;;;;9.27;1.48;;;;;;;;;;5071794;28;20036;-88
2022/11/17 15:06:39;;;;;;;7.28;1.95;;;;;;;;;;5089813;28;20030;-85
2022/11/17 15:09:04;;;;;;;3.88;1.45;;;;;;;;;;5094459;28;20036;-86
2022/11/17 15:11:31;;;;;;;8.57;1.58;;;;;;;;;;5067891;28;20027;-87
2022/11/17 15:14:03;;;;;;;7.72;1.83;;;;;;;;;;5075206;28;20019;-88
2022/11/17 15:16:29;;;;;;;8.57;1.45;;;;;;;;;;5075182;28;20028;-89
2022/11/17 15:18:54;;;;;;;8.70;1.90;;;;;;;;;;5072055;28;20039;-86
2022/11/17 15:21:19;;;;;;;6.50;1.90;;;;;;;;;;5080994;28;20020;-87
2022/11/17 15:23:45;;;;;;;5.63;1.40;;;;;;;;;;5116453;28;20019;-87
2022/11/17 15:26:16;;;;;;;8.10;1.33;;;;;;;;;;5097816;28;20112;-88
2022/11/17 15:28:42;;;;;;;3.17;1.23;;;;;;;;;;5080969;28;20028;-87
2022/11/17 15:31:09;;;;;;;11.50;2.03;;;;;;;;;;5070571;28;20119;-86
2022/11/17 15:33:38;;;;;;;6.75;1.58;;;;;;;;;;5070976;28;20057;-88
2022/11/17 15:36:04;;;;;;;5.15;1.73;;;;;;;;;;5072972;28;20027;-86
2022/11/17 15:38:30;;;;;;;5.22;1.50;;;;;;;;;;5073615;28;20477;-88